createdAt,value
2018-04-14T00:00:29.710Z,98042.59
2018-04-14T00:02:57.322Z,98042.45
2018-04-14T00:05:24.917Z,98042.13
2018-04-14T00:07:52.646Z,98046.77
2018-04-14T00:10:20.233Z,98050.70
2018-04-14T00:12:47.822Z,98049.77
2018-04-14T00:15:15.431Z,98053.14
2018-04-14T00:17:43.023Z,98056.59
2018-04-14T00:20:10.864Z,98059.62
2018-04-14T00:22:38.450Z,98058.72
2018-04-14T00:25:06.041Z,98061.74
2018-04-14T00:27:33.666Z,98064.10
2018-04-14T00:30:01.255Z,98064.77
2018-04-14T00:32:29.163Z,98057.47
2018-04-14T00:34:56.745Z,98067.01
2018-04-14T00:37:24.335Z,98064.72
2018-04-14T00:39:51.947Z,98068.97
2018-04-14T00:42:19.553Z,98073.73
2018-04-14T00:44:47.386Z,98067.08
2018-04-14T00:47:15.017Z,98074.58
2018-04-14T00:49:42.614Z,98076.83
2018-04-14T00:52:10.231Z,98073.52
2018-04-14T00:54:37.830Z,98069.16
2018-04-14T00:57:06.486Z,98063.41
2018-04-14T00:59:34.090Z,98062.79
2018-04-14T01:02:01.738Z,98070.72
2018-04-14T01:04:29.363Z,98067.41
2018-04-14T01:06:56.963Z,98071.36
2018-04-14T01:09:24.823Z,98069.26
2018-04-14T01:11:52.542Z,98076.89
2018-04-14T01:14:20.131Z,98074.86
2018-04-14T01:16:47.749Z,98075.52
2018-04-14T01:19:15.435Z,98067.80
2018-04-14T01:21:43.058Z,98073.44
2018-04-14T01:24:10.667Z,98075.19
2018-04-14T01:26:38.666Z,98082.27
2018-04-14T01:29:06.261Z,98080.70
2018-04-14T01:31:33.857Z,98080.13
2018-04-14T01:34:01.472Z,98075.18
2018-04-14T01:36:29.069Z,98078.27
2018-04-14T01:38:56.686Z,98070.89
2018-04-14T01:41:24.293Z,98075.65
2018-04-14T01:43:51.943Z,98073.25
2018-04-14T01:46:19.538Z,98072.64
2018-04-14T01:48:47.127Z,98075.19
2018-04-14T01:51:14.751Z,98075.71
2018-04-14T01:53:42.345Z,98077.03
2018-04-14T01:56:09.978Z,98068.67
2018-04-14T01:58:37.571Z,98067.73
2018-04-14T02:01:05.200Z,98067.03
2018-04-14T02:03:32.792Z,98061.84
2018-04-14T02:06:00.380Z,98065.91
2018-04-14T02:08:28.001Z,98074.55
2018-04-14T02:10:55.613Z,98072.25
2018-04-14T02:13:23.227Z,98070.73
2018-04-14T02:15:50.822Z,98067.28
2018-04-14T02:18:18.665Z,98079.63
2018-04-14T02:20:46.278Z,98082.13
2018-04-14T02:23:13.868Z,98080.00
2018-04-14T02:25:41.480Z,98085.38
2018-04-14T02:28:09.075Z,98081.49
2018-04-14T02:30:36.702Z,98087.13
2018-04-14T02:33:04.302Z,98085.70
2018-04-14T02:35:32.084Z,98084.61
2018-04-14T02:37:59.681Z,98093.70
2018-04-14T02:40:27.300Z,98091.89
2018-04-14T02:42:54.937Z,98089.84
2018-04-14T02:45:22.538Z,98094.75
2018-04-14T02:47:50.156Z,98094.00
2018-04-14T02:50:18.482Z,98099.91
2018-04-14T02:52:46.356Z,98098.71
2018-04-14T02:55:13.958Z,98109.03
2018-04-14T02:57:41.555Z,98112.13
2018-04-14T03:00:09.171Z,98109.95
2018-04-14T03:02:36.780Z,98106.75
2018-04-14T03:05:04.407Z,98103.50
2018-04-14T03:07:32.026Z,98112.05
2018-04-14T03:09:59.767Z,98112.45
2018-04-14T03:12:27.520Z,98114.86
2018-04-14T03:14:55.116Z,98115.56
2018-04-14T03:17:22.726Z,98113.77
2018-04-14T03:19:50.372Z,98109.34
2018-04-14T03:22:18.033Z,98107.17
2018-04-14T03:24:45.620Z,98105.97
2018-04-14T03:27:13.418Z,98111.86
2018-04-14T03:29:41.003Z,98111.86
2018-04-14T03:32:08.587Z,98113.70
2018-04-14T03:34:36.187Z,98115.31
2018-04-14T03:37:03.771Z,98121.91
2018-04-14T03:39:31.386Z,98126.90
2018-04-14T03:41:58.975Z,98124.94
2018-04-14T03:44:26.822Z,98121.17
2018-04-14T03:46:54.408Z,98125.06
2018-04-14T03:49:22.069Z,98120.66
2018-04-14T03:51:49.733Z,98121.81
2018-04-14T03:54:17.393Z,98126.09
2018-04-14T03:56:45.056Z,98126.78
2018-04-14T03:59:12.637Z,98121.53
2018-04-14T04:01:40.375Z,98131.73
2018-04-14T04:04:07.963Z,98128.44
2018-04-14T04:06:35.552Z,98134.36
2018-04-14T04:09:03.186Z,98141.08
2018-04-14T04:11:30.826Z,98141.63
2018-04-14T04:13:58.438Z,98139.20
2018-04-14T04:16:26.031Z,98148.20
2018-04-14T04:19:05.678Z,98147.24
2018-04-14T04:21:45.158Z,98146.95
2018-04-14T04:24:24.558Z,98146.70
2018-04-14T04:26:52.158Z,98146.70
2018-04-14T04:29:21.389Z,98145.05
2018-04-14T04:31:49.043Z,98149.20
2018-04-14T04:34:16.643Z,98151.65
2018-04-14T04:36:44.246Z,98157.84
2018-04-14T04:39:11.838Z,98162.12
2018-04-14T04:41:39.462Z,98162.91
2018-04-14T04:44:07.050Z,98159.20
2018-04-14T04:46:34.638Z,98167.70
2018-04-14T04:49:02.256Z,98167.30
2018-04-14T04:51:29.848Z,98176.44
2018-04-14T04:53:57.463Z,98177.38
2018-04-14T04:56:25.050Z,98180.86
2018-04-14T04:58:52.869Z,98196.42
2018-04-14T05:01:20.460Z,98196.17
2018-04-14T05:03:48.050Z,98200.97
2018-04-14T05:06:15.666Z,98206.19
2018-04-14T05:08:43.317Z,98207.38
2018-04-14T05:11:10.932Z,98214.23
2018-04-14T05:13:38.531Z,98218.36
2018-04-14T05:16:06.119Z,98219.27
2018-04-14T05:18:33.736Z,98224.77
2018-04-14T05:21:01.323Z,98218.29
2018-04-14T05:23:29.048Z,98221.80
2018-04-14T05:25:56.635Z,98224.19
2018-04-14T05:28:24.222Z,98235.13
2018-04-14T05:30:51.842Z,98233.63
2018-04-14T05:33:19.430Z,98238.82
2018-04-14T05:35:47.059Z,98237.08
2018-04-14T05:38:14.651Z,98243.75
2018-04-14T05:40:42.252Z,98253.73
2018-04-14T05:43:09.853Z,98253.19
2018-04-14T05:45:37.450Z,98253.95
2018-04-14T05:48:05.072Z,98256.73
2018-04-14T05:50:32.665Z,98258.42
2018-04-14T05:53:00.306Z,98265.36
2018-04-14T05:55:27.902Z,98259.36
2018-04-14T05:57:55.505Z,98263.88
2018-04-14T06:00:23.125Z,98256.08
2018-04-14T06:02:50.726Z,98253.67
2018-04-14T06:05:18.352Z,98258.22
2018-04-14T06:07:45.955Z,98263.32
2018-04-14T06:10:13.589Z,98265.39
2018-04-14T06:12:41.313Z,98268.05
2018-04-14T06:15:08.934Z,98266.20
2018-04-14T06:17:36.557Z,98275.36
2018-04-14T06:20:04.157Z,98272.84
2018-04-14T06:22:31.789Z,98281.50
2018-04-14T06:24:59.390Z,98283.72
2018-04-14T06:27:27.590Z,98281.79
2018-04-14T06:29:55.191Z,98277.12
2018-04-14T06:32:22.794Z,98280.22
2018-04-14T06:34:50.415Z,98279.08
2018-04-14T06:37:18.026Z,98281.83
2018-04-14T06:39:45.662Z,98277.57
2018-04-14T06:42:13.286Z,98272.72
2018-04-14T06:44:41.121Z,98284.25
2018-04-14T06:47:08.718Z,98289.71
2018-04-14T06:49:36.320Z,98292.89
2018-04-14T06:52:03.948Z,98287.13
2018-04-14T06:54:31.557Z,98287.96
2018-04-14T06:56:59.175Z,98292.83
2018-04-14T06:59:26.799Z,98289.52
2018-04-14T07:01:54.609Z,98283.25
2018-04-14T07:04:22.224Z,98288.02
2018-04-14T07:06:49.826Z,98286.78
2018-04-14T07:09:17.446Z,98296.69
2018-04-14T07:11:45.048Z,98296.04
2018-04-14T07:14:12.670Z,98295.63
2018-04-14T07:16:40.266Z,98303.70
2018-04-14T07:19:08.106Z,98304.07
2018-04-14T07:21:35.708Z,98300.59
2018-04-14T07:24:03.317Z,98303.83
2018-04-14T07:26:30.941Z,98304.87
2018-04-14T07:28:58.542Z,98301.80
2018-04-14T07:31:26.180Z,98312.52
2018-04-14T07:33:53.779Z,98309.67
2018-04-14T07:36:21.424Z,98312.16
2018-04-14T07:38:49.026Z,98318.61
2018-04-14T07:41:16.622Z,98312.28
2018-04-14T07:43:44.244Z,98310.62
2018-04-14T07:46:11.966Z,98314.06
2018-04-14T07:48:39.589Z,98318.99
2018-04-14T07:51:07.187Z,98314.56
2018-04-14T07:53:35.055Z,98314.62
2018-04-14T07:56:02.673Z,98318.14
2018-04-14T07:58:30.281Z,98317.09
2018-04-14T08:00:58.180Z,98317.39
2018-04-14T08:03:25.786Z,98315.16
2018-04-14T08:05:53.416Z,98321.41
2018-04-14T08:08:21.038Z,98324.53
2018-04-14T08:10:48.694Z,98323.57
2018-04-14T08:13:16.293Z,98321.73
2018-04-14T08:15:43.895Z,98316.70
2018-04-14T08:18:11.526Z,98318.77
2018-04-14T08:20:39.131Z,98319.11
2018-04-14T08:23:06.802Z,98315.47
2018-04-14T08:25:34.398Z,98323.40
2018-04-14T08:28:02.332Z,98325.31
2018-04-14T08:30:29.926Z,98322.17
2018-04-14T08:32:57.523Z,98322.80
2018-04-14T08:35:25.163Z,98328.98
2018-04-14T08:37:52.772Z,98321.17
2018-04-14T08:40:20.414Z,98324.94
2018-04-14T08:42:48.028Z,98324.31
2018-04-14T08:45:15.615Z,98322.64
2018-04-14T08:47:43.236Z,98325.02
2018-04-14T08:50:10.838Z,98328.94
2018-04-14T08:52:38.448Z,98331.41
2018-04-14T08:55:06.046Z,98324.48
2018-04-14T08:57:33.681Z,98324.52
2018-04-14T09:00:01.281Z,98322.61
2018-04-14T09:02:29.025Z,98325.08
2018-04-14T09:04:56.655Z,98331.70
2018-04-14T09:07:24.270Z,98328.90
2018-04-14T09:09:51.890Z,98330.02
2018-04-14T09:12:19.488Z,98333.07
2018-04-14T09:14:47.107Z,98331.69
2018-04-14T09:17:14.710Z,98326.98
2018-04-14T09:19:42.341Z,98333.45
2018-04-14T09:22:09.942Z,98332.90
2018-04-14T09:24:37.535Z,98332.04
2018-04-14T09:27:05.155Z,98333.56
2018-04-14T09:29:32.755Z,98337.24
2018-04-14T09:32:00.427Z,98332.55
2018-04-14T09:34:28.040Z,98326.05
2018-04-14T09:36:55.754Z,98333.92
2018-04-14T09:39:23.350Z,98330.17
2018-04-14T09:41:50.958Z,98321.45
2018-04-14T09:44:18.587Z,98321.44
2018-04-14T09:46:46.187Z,98328.31
2018-04-14T09:49:13.801Z,98319.81
2018-04-14T09:51:41.525Z,98328.11
2018-04-14T09:54:09.116Z,98324.28
2018-04-14T09:56:36.728Z,98327.25
2018-04-14T09:59:04.323Z,98321.73
2018-04-14T10:01:31.963Z,98317.19
2018-04-14T10:03:59.551Z,98320.08
2018-04-14T10:06:27.397Z,98315.31
2018-04-14T10:08:54.986Z,98321.95
2018-04-14T10:11:22.588Z,98314.99
2018-04-14T10:13:50.218Z,98319.58
2018-04-14T10:16:17.824Z,98324.86
2018-04-14T10:18:45.459Z,98319.27
2018-04-14T10:21:13.046Z,98313.94
2018-04-14T10:23:41.026Z,98308.91
2018-04-14T10:26:08.610Z,98306.42
2018-04-14T10:28:36.224Z,98304.55
2018-04-14T10:31:03.843Z,98303.34
2018-04-14T10:33:31.438Z,98304.00
2018-04-14T10:35:59.048Z,98308.83
2018-04-14T10:38:26.638Z,98302.55
2018-04-14T10:40:54.278Z,98299.84
2018-04-14T10:43:21.867Z,98291.69
2018-04-14T10:45:49.457Z,98291.86
2018-04-14T10:48:17.252Z,98291.52
2018-04-14T10:50:44.855Z,98286.81
2018-04-14T10:53:12.676Z,98285.30
2018-04-14T10:55:40.270Z,98287.68
2018-04-14T10:58:07.871Z,98283.23
2018-04-14T11:00:35.484Z,98282.68
2018-04-14T11:03:03.074Z,98282.77
2018-04-14T11:05:30.711Z,98287.44
2018-04-14T11:07:58.323Z,98280.98
2018-04-14T11:10:26.102Z,98287.22
2018-04-14T11:12:53.726Z,98279.36
2018-04-14T11:15:21.310Z,98279.21
2018-04-14T11:17:48.994Z,98274.15
2018-04-14T11:20:16.586Z,98271.19
2018-04-14T11:22:44.410Z,98266.25
2018-04-14T11:25:12.014Z,98268.27
2018-04-14T11:27:39.614Z,98262.46
2018-04-14T11:30:07.247Z,98257.84
2018-04-14T11:32:34.830Z,98266.91
2018-04-14T11:35:02.441Z,98264.00
2018-04-14T11:37:30.041Z,98260.80
2018-04-14T11:40:00.865Z,98262.84
2018-04-14T11:42:28.568Z,98261.42
2018-04-14T11:44:56.157Z,98257.08
2018-04-14T11:47:23.793Z,98256.98
2018-04-14T11:49:51.383Z,98257.34
2018-04-14T11:52:18.991Z,98245.55
2018-04-14T11:54:46.585Z,98251.22
2018-04-14T11:57:14.469Z,98248.55
2018-04-14T11:59:42.074Z,98244.84
2018-04-14T12:02:09.657Z,98245.67
2018-04-14T12:04:37.267Z,98249.45
2018-04-14T12:07:04.857Z,98250.64
2018-04-14T12:09:32.490Z,98248.30
2018-04-14T12:12:00.081Z,98252.19
2018-04-14T12:14:27.702Z,98248.63
2018-04-14T12:16:55.294Z,98248.73
2018-04-14T12:19:22.891Z,98251.14
2018-04-14T12:21:50.503Z,98244.45
2018-04-14T12:24:18.093Z,98246.10
2018-04-14T12:26:45.702Z,98250.64
2018-04-14T12:29:13.297Z,98241.76
2018-04-14T12:31:40.930Z,98242.58
2018-04-14T12:34:08.533Z,98245.66
2018-04-14T12:36:36.116Z,98253.73
2018-04-14T12:39:03.729Z,98254.81
2018-04-14T12:41:31.321Z,98257.19
2018-04-14T12:43:58.943Z,98250.95
2018-04-14T12:46:26.539Z,98253.17
2018-04-14T12:48:54.154Z,98247.00
2018-04-14T12:51:21.778Z,98245.63
2018-04-14T12:53:49.570Z,98242.87
2018-04-14T12:56:17.160Z,98239.07
2018-04-14T12:58:44.780Z,98236.55
2018-04-14T13:01:12.395Z,98234.92
2018-04-14T13:03:39.993Z,98225.39
2018-04-14T13:06:07.683Z,98226.30
2018-04-14T13:08:35.264Z,98221.78
2018-04-14T13:11:03.008Z,98221.15
2018-04-14T13:13:30.833Z,98212.61
2018-04-14T13:15:58.418Z,98212.13
2018-04-14T13:18:26.038Z,98214.34
2018-04-14T13:20:53.626Z,98207.69
2018-04-14T13:23:21.246Z,98211.00
2018-04-14T13:25:48.840Z,98208.64
2018-04-14T13:28:16.633Z,98205.55
2018-04-14T13:30:44.222Z,98200.23
2018-04-14T13:33:11.972Z,98197.25
2018-04-14T13:35:39.586Z,98194.16
2018-04-14T13:38:07.184Z,98201.05
2018-04-14T13:40:34.798Z,98195.48
2018-04-14T13:43:02.384Z,98197.16
2018-04-14T13:45:33.154Z,98193.00
2018-04-14T13:48:07.184Z,98192.45
2018-04-14T13:50:38.625Z,98192.97
2018-04-14T13:53:11.403Z,98201.85
2018-04-14T13:55:42.409Z,98195.08
2018-04-14T13:58:12.507Z,98195.03
2018-04-14T14:00:43.362Z,98207.83
2018-04-14T14:03:18.959Z,98204.71
2018-04-14T14:05:56.394Z,98201.28
2018-04-14T14:08:25.127Z,98198.41
2018-04-14T14:10:52.738Z,98206.11
2018-04-14T14:13:20.578Z,98203.09
2018-04-14T14:15:48.343Z,98211.44
2018-04-14T14:18:16.045Z,98210.52
2018-04-14T14:20:43.859Z,98210.03
2018-04-14T14:23:16.141Z,98208.20
2018-04-14T14:25:48.771Z,98210.47
2018-04-14T14:28:21.159Z,98215.35
2018-04-14T14:30:51.191Z,98211.24
2018-04-14T14:33:22.126Z,98208.45
2018-04-14T14:36:00.446Z,98211.56
2018-04-14T14:38:35.742Z,98208.74
2018-04-14T14:41:10.419Z,98198.88
2018-04-14T14:43:40.332Z,98199.61
2018-04-14T14:46:09.634Z,98201.91
2018-04-14T14:48:39.327Z,98197.38
2018-04-14T14:51:08.240Z,98184.06
2018-04-14T14:53:37.571Z,98183.52
2018-04-14T14:56:05.459Z,98175.27
2018-04-14T14:58:33.474Z,98175.68
2018-04-14T15:01:01.644Z,98166.55
2018-04-14T15:03:29.712Z,98162.20
2018-04-14T15:05:57.725Z,98163.58
2018-04-14T15:08:28.821Z,98159.97
2018-04-14T15:10:57.117Z,98156.64
2018-04-14T15:13:25.085Z,98153.47
2018-04-14T15:15:53.048Z,98158.09
2018-04-14T15:18:20.749Z,98151.70
2018-04-14T15:20:48.379Z,98150.37
2018-04-14T15:23:16.023Z,98142.70
2018-04-14T15:25:43.663Z,98136.95
2018-04-14T15:28:11.243Z,98139.03
2018-04-14T15:30:47.174Z,98144.11
2018-04-14T15:33:14.763Z,98143.13
2018-04-14T15:35:42.629Z,98144.28
2018-04-14T15:38:10.227Z,98144.87
2018-04-14T15:40:37.823Z,98141.51
2018-04-14T15:43:05.423Z,98139.08
2018-04-14T15:45:33.015Z,98140.19
2018-04-14T15:48:00.627Z,98136.36
2018-04-14T15:50:28.223Z,98128.36
2018-04-14T15:52:55.962Z,98126.00
2018-04-14T15:55:23.561Z,98125.03
2018-04-14T15:57:51.154Z,98114.80
2018-04-14T16:00:18.788Z,98113.61
2018-04-14T16:02:46.411Z,98111.26
2018-04-14T16:05:14.026Z,98110.58
2018-04-14T16:07:41.907Z,98102.59
2018-04-14T16:10:09.706Z,98101.52
2018-04-14T16:12:37.323Z,98099.80
2018-04-14T16:15:04.924Z,98104.52
2018-04-14T16:17:32.539Z,98105.71
2018-04-14T16:20:00.138Z,98101.97
2018-04-14T16:22:27.900Z,98097.78
2018-04-14T16:24:55.493Z,98097.16
2018-04-14T16:27:23.164Z,98100.73
2018-04-14T16:29:50.749Z,98096.11
2018-04-14T16:32:18.342Z,98100.69
2018-04-14T16:34:46.017Z,98092.94
2018-04-14T16:37:13.601Z,98093.46
2018-04-14T16:39:41.678Z,98085.72
2018-04-14T16:42:09.268Z,98089.77
2018-04-14T16:44:36.930Z,98088.64
2018-04-14T16:47:04.527Z,98087.34
2018-04-14T16:49:32.115Z,98086.23
2018-04-14T16:51:59.747Z,98088.37
2018-04-14T16:54:27.427Z,98077.02
2018-04-14T16:56:55.043Z,98082.53
2018-04-14T16:59:22.630Z,98080.30
2018-04-14T17:01:50.405Z,98082.05
2018-04-14T17:04:18.012Z,98082.14
2018-04-14T17:06:45.611Z,98071.84
2018-04-14T17:09:13.232Z,98082.88
2018-04-14T17:11:40.826Z,98089.22
2018-04-14T17:14:08.442Z,98094.73
2018-04-14T17:16:36.080Z,98101.57
2018-04-14T17:19:04.054Z,98100.16
2018-04-14T17:21:31.641Z,98096.01
2018-04-14T17:23:59.229Z,98096.03
2018-04-14T17:26:26.856Z,98091.58
2018-04-14T17:28:54.458Z,98090.49
2018-04-14T17:31:22.077Z,98088.20
2018-04-14T17:33:49.686Z,98096.67
2018-04-14T17:36:17.327Z,98097.95
2018-04-14T17:38:44.919Z,98097.97
2018-04-14T17:41:12.535Z,98095.94
2018-04-14T17:43:40.272Z,98088.26
2018-04-14T17:46:07.871Z,98091.30
2018-04-14T17:48:35.497Z,98087.87
2018-04-14T17:51:03.079Z,98093.68
2018-04-14T17:53:30.702Z,98088.64
2018-04-14T17:55:58.505Z,98089.66
2018-04-14T17:58:26.102Z,98085.56
2018-04-14T18:00:53.714Z,98079.47
2018-04-14T18:03:21.388Z,98080.61
2018-04-14T18:05:49.220Z,98087.27
2018-04-14T18:08:16.893Z,98097.45
2018-04-14T18:10:44.489Z,98091.86
2018-04-14T18:13:12.110Z,98093.97
2018-04-14T18:15:39.713Z,98093.11
2018-04-14T18:18:07.337Z,98098.89
2018-04-14T18:20:34.934Z,98109.52
2018-04-14T18:23:02.555Z,98106.71
2018-04-14T18:25:30.165Z,98114.75
2018-04-14T18:27:57.764Z,98122.34
2018-04-14T18:30:25.386Z,98124.73
2018-04-14T18:32:52.978Z,98128.41
2018-04-14T18:35:20.602Z,98138.38
2018-04-14T18:37:48.370Z,98130.88
2018-04-14T18:40:15.999Z,98137.78
2018-04-14T18:42:43.586Z,98139.71
2018-04-14T18:45:11.435Z,98141.72
2018-04-14T18:47:39.065Z,98141.47
2018-04-14T18:50:06.737Z,98141.63
2018-04-14T18:52:34.292Z,98146.89
2018-04-14T18:55:01.908Z,98151.55
2018-04-14T18:57:29.521Z,98153.81
2018-04-14T18:59:57.110Z,98155.02
2018-04-14T19:02:25.032Z,98155.50
2018-04-14T19:04:52.563Z,98154.58
2018-04-14T19:07:20.151Z,98154.42
2018-04-14T19:09:47.778Z,98162.59
2018-04-14T19:12:15.552Z,98160.34
2018-04-14T19:14:43.552Z,98146.40
2018-04-14T19:17:11.347Z,98146.40
2018-04-14T19:19:38.939Z,98143.81
2018-04-14T19:22:06.546Z,98144.31
2018-04-14T19:24:34.159Z,98137.95
2018-04-14T19:27:01.780Z,98137.23
2018-04-14T19:29:29.372Z,98144.49
2018-04-14T19:31:57.167Z,98136.45
2018-04-14T19:34:24.753Z,98133.20
2018-04-14T19:36:52.358Z,98138.92
2018-04-14T19:39:20.097Z,98144.30
2018-04-14T19:41:47.695Z,98141.25
2018-04-14T19:44:15.351Z,98144.64
2018-04-14T19:46:43.008Z,98136.75
2018-04-14T19:49:10.964Z,98133.53
2018-04-14T19:51:38.559Z,98133.30
2018-04-14T19:54:06.150Z,98129.55
2018-04-14T19:56:33.768Z,98132.51
2018-04-14T19:59:01.359Z,98135.37
2018-04-14T20:01:28.975Z,98137.39
2018-04-14T20:03:56.567Z,98129.23
2018-04-14T20:06:24.396Z,98135.44
2018-04-14T20:08:52.011Z,98129.20
2018-04-14T20:11:19.651Z,98132.75
2018-04-14T20:13:47.265Z,98131.78
2018-04-14T20:16:14.861Z,98130.92
2018-04-14T20:18:42.474Z,98119.09
2018-04-14T20:21:10.075Z,98114.11
2018-04-14T20:23:37.906Z,98116.30
2018-04-14T20:26:05.508Z,98117.02
2018-04-14T20:28:33.101Z,98118.70
2018-04-14T20:31:00.722Z,98116.71
2018-04-14T20:33:28.318Z,98113.06
2018-04-14T20:35:55.931Z,98119.84
2018-04-14T20:38:23.531Z,98118.42
2018-04-14T20:40:51.166Z,98118.98
2018-04-14T20:43:18.769Z,98117.45
2018-04-14T20:45:46.363Z,98120.91
2018-04-14T20:48:13.977Z,98118.75
2018-04-14T20:50:41.576Z,98114.84
2018-04-14T20:53:09.195Z,98113.70
2018-04-14T20:55:36.797Z,98115.95
2018-04-14T20:58:04.670Z,98114.98
2018-04-14T21:00:32.271Z,98115.85
2018-04-14T21:02:59.865Z,98106.82
2018-04-14T21:05:27.490Z,98107.54
2018-04-14T21:07:55.100Z,98112.02
2018-04-14T21:10:22.752Z,98108.74
2018-04-14T21:12:50.349Z,98108.56
2018-04-14T21:15:18.018Z,98101.06
2018-04-14T21:17:45.608Z,98093.22
2018-04-14T21:20:13.982Z,98089.21
2018-04-14T21:22:41.618Z,98089.45
2018-04-14T21:25:09.223Z,98091.19
2018-04-14T21:27:36.839Z,98080.69
2018-04-14T21:30:04.492Z,98082.20
2018-04-14T21:32:32.090Z,98081.31
2018-04-14T21:34:59.712Z,98074.30
2018-04-14T21:37:27.310Z,98070.28
2018-04-14T21:39:55.044Z,98058.64
2018-04-14T21:42:22.640Z,98061.57
2018-04-14T21:44:50.261Z,98056.80
2018-04-14T21:47:17.891Z,98054.08
2018-04-14T21:49:45.688Z,98056.50
2018-04-14T21:52:13.287Z,98065.31
2018-04-14T21:54:40.896Z,98068.28
2018-04-14T21:57:08.546Z,98058.59
2018-04-14T21:59:36.151Z,98057.66
2018-04-14T22:02:03.799Z,98060.69
2018-04-14T22:04:31.404Z,98066.66
2018-04-14T22:06:59.026Z,98058.53
2018-04-14T22:09:26.648Z,98058.30
2018-04-14T22:11:54.263Z,98066.91
2018-04-14T22:14:32.803Z,98064.20
2018-04-14T22:17:00.394Z,98059.94
2018-04-14T22:19:28.670Z,98062.25
2018-04-14T22:21:57.470Z,98065.02
2018-04-14T22:24:25.117Z,98049.31
2018-04-14T22:26:52.727Z,98037.47
2018-04-14T22:29:20.321Z,98031.80
2018-04-14T22:31:48.642Z,98032.88
2018-04-14T22:34:16.235Z,98037.81
2018-04-14T22:36:44.071Z,98033.38
2018-04-14T22:39:11.844Z,98030.59
2018-04-14T22:41:39.436Z,98024.94
2018-04-14T22:44:07.053Z,98027.24
2018-04-14T22:46:34.649Z,98020.77
2018-04-14T22:49:02.267Z,98014.71
2018-04-14T22:51:29.866Z,98007.19
2018-04-14T22:53:57.733Z,98006.36
2018-04-14T22:56:25.333Z,98005.80
2018-04-14T22:58:52.926Z,97999.96
2018-04-14T23:01:20.552Z,97991.52
2018-04-14T23:03:48.142Z,97996.02
2018-04-14T23:06:15.771Z,97987.27
2018-04-14T23:08:43.373Z,97975.56
2018-04-14T23:11:10.973Z,97972.77
2018-04-14T23:13:38.587Z,97968.31
2018-04-14T23:16:06.180Z,97960.72
2018-04-14T23:18:33.818Z,97962.00
2018-04-14T23:21:01.450Z,97958.34
2018-04-14T23:23:29.058Z,97951.23
2018-04-14T23:25:56.658Z,97946.24
2018-04-14T23:28:24.294Z,97945.69
2018-04-14T23:30:51.885Z,97944.86
2018-04-14T23:33:19.465Z,97939.77
2018-04-14T23:35:47.388Z,97928.45
2018-04-14T23:38:14.980Z,97931.41
2018-04-14T23:40:42.614Z,97923.25
2018-04-14T23:43:10.204Z,97929.06
2018-04-14T23:45:37.789Z,97926.80
2018-04-14T23:48:05.405Z,97928.91
2018-04-14T23:50:33.014Z,97928.95
2018-04-14T23:53:00.627Z,97924.73
2018-04-14T23:55:28.225Z,97919.39
2018-04-14T23:57:55.838Z,97918.28
